sensor_id;sensor_type;location;lat;lon;timestamp;temperature;humidity
7572;DHT22;3827;49.928;8.548;2022-11-20T00:00:38;2.00;99.90
7572;DHT22;3827;49.928;8.548;2022-11-20T00:03:05;2.00;99.90
7572;DHT22;3827;49.928;8.548;2022-11-20T00:05:32;2.00;99.90
7572;DHT22;3827;49.928;8.548;2022-11-20T00:07:59;2.00;99.90
7572;DHT22;3827;49.928;8.548;2022-11-20T00:10:25;2.00;99.90
7572;DHT22;3827;49.928;8.548;2022-11-20T00:12:56;2.00;99.90
7572;DHT22;3827;49.928;8.548;2022-11-20T00:15:23;2.00;99.90
7572;DHT22;3827;49.928;8.548;2022-11-20T00:17:50;2.10;99.90
7572;DHT22;3827;49.928;8.548;2022-11-20T00:20:17;2.00;99.90
7572;DHT22;3827;49.928;8.548;2022-11-20T00:22:44;2.00;99.90
7572;DHT22;3827;49.928;8.548;2022-11-20T00:25:11;2.10;99.90
7572;DHT22;3827;49.928;8.548;2022-11-20T00:27:38;2.00;99.90
7572;DHT22;3827;49.928;8.548;2022-11-20T00:30:07;2.00;99.90
7572;DHT22;3827;49.928;8.548;2022-11-20T00:32:34;1.90;99.90
7572;DHT22;3827;49.928;8.548;2022-11-20T00:35:01;1.90;99.90
7572;DHT22;3827;49.928;8.548;2022-11-20T00:37:28;1.80;99.90
7572;DHT22;3827;49.928;8.548;2022-11-20T00:39:54;1.80;99.90
7572;DHT22;3827;49.928;8.548;2022-11-20T00:42:21;1.80;99.90
7572;DHT22;3827;49.928;8.548;2022-11-20T00:44:48;1.80;99.90
7572;DHT22;3827;49.928;8.548;2022-11-20T00:47:16;1.80;99.90
7572;DHT22;3827;49.928;8.548;2022-11-20T00:49:43;1.90;99.90
7572;DHT22;3827;49.928;8.548;2022-11-20T00:52:10;1.80;99.90
7572;DHT22;3827;49.928;8.548;2022-11-20T00:54:36;1.80;99.90
7572;DHT22;3827;49.928;8.548;2022-11-20T00:57:03;1.80;99.90
7572;DHT22;3827;49.928;8.548;2022-11-20T00:59:30;1.80;99.90
7572;DHT22;3827;49.928;8.548;2022-11-20T01:01:57;1.80;99.90
7572;DHT22;3827;49.928;8.548;2022-11-20T01:04:25;1.80;99.90
7572;DHT22;3827;49.928;8.548;2022-11-20T01:06:52;1.90;99.90
7572;DHT22;3827;49.928;8.548;2022-11-20T01:09:18;1.80;99.90
7572;DHT22;3827;49.928;8.548;2022-11-20T01:11:45;1.90;99.90
7572;DHT22;3827;49.928;8.548;2022-11-20T01:14:14;1.80;99.90
7572;DHT22;3827;49.928;8.548;2022-11-20T01:16:43;1.80;99.90
7572;DHT22;3827;49.928;8.548;2022-11-20T01:19:11;1.80;99.90
7572;DHT22;3827;49.928;8.548;2022-11-20T01:21:42;1.90;99.90
7572;DHT22;3827;49.928;8.548;2022-11-20T01:24:12;1.80;99.90
7572;DHT22;3827;49.928;8.548;2022-11-20T01:26:40;1.80;99.90
7572;DHT22;3827;49.928;8.548;2022-11-20T01:29:12;1.70;99.90
7572;DHT22;3827;49.928;8.548;2022-11-20T01:31:39;2.10;99.90
7572;DHT22;3827;49.928;8.548;2022-11-20T01:34:08;1.80;99.90
7572;DHT22;3827;49.928;8.548;2022-11-20T01:36:36;1.80;99.90
7572;DHT22;3827;49.928;8.548;2022-11-20T01:39:07;1.90;99.90
7572;DHT22;3827;49.928;8.548;2022-11-20T01:41:36;1.80;99.90
7572;DHT22;3827;49.928;8.548;2022-11-20T01:44:22;1.90;99.90
7572;DHT22;3827;49.928;8.548;2022-11-20T01:46:54;1.90;99.90
7572;DHT22;3827;49.928;8.548;2022-11-20T01:49:26;2.10;99.90
7572;DHT22;3827;49.928;8.548;2022-11-20T01:51:57;2.00;99.90
7572;DHT22;3827;49.928;8.548;2022-11-20T01:54:32;2.00;99.90
7572;DHT22;3827;49.928;8.548;2022-11-20T01:57:01;2.00;99.90
7572;DHT22;3827;49.928;8.548;2022-11-20T01:59:29;1.90;99.90
7572;DHT22;3827;49.928;8.548;2022-11-20T02:01:56;1.80;99.90
7572;DHT22;3827;49.928;8.548;2022-11-20T02:04:24;1.70;99.90
7572;DHT22;3827;49.928;8.548;2022-11-20T02:06:53;1.70;99.90
7572;DHT22;3827;49.928;8.548;2022-11-20T02:09:21;1.70;99.90
7572;DHT22;3827;49.928;8.548;2022-11-20T02:11:49;1.80;99.90
7572;DHT22;3827;49.928;8.548;2022-11-20T02:14:17;1.80;99.90
7572;DHT22;3827;49.928;8.548;2022-11-20T02:16:45;1.90;99.90
7572;DHT22;3827;49.928;8.548;2022-11-20T02:19:18;1.90;99.90
7572;DHT22;3827;49.928;8.548;2022-11-20T02:21:49;1.90;99.90
7572;DHT22;3827;49.928;8.548;2022-11-20T02:24:19;1.80;99.90
7572;DHT22;3827;49.928;8.548;2022-11-20T02:26:51;1.80;99.90
7572;DHT22;3827;49.928;8.548;2022-11-20T02:29:24;1.90;99.90
7572;DHT22;3827;49.928;8.548;2022-11-20T02:31:54;1.90;99.90
7572;DHT22;3827;49.928;8.548;2022-11-20T02:34:21;1.90;99.90
7572;DHT22;3827;49.928;8.548;2022-11-20T02:36:49;1.90;99.90
7572;DHT22;3827;49.928;8.548;2022-11-20T02:39:19;1.90;99.90
7572;DHT22;3827;49.928;8.548;2022-11-20T02:41:47;1.80;99.90
7572;DHT22;3827;49.928;8.548;2022-11-20T02:44:13;1.90;99.90
7572;DHT22;3827;49.928;8.548;2022-11-20T02:46:40;1.90;99.90
7572;DHT22;3827;49.928;8.548;2022-11-20T02:49:07;2.00;99.90
7572;DHT22;3827;49.928;8.548;2022-11-20T02:51:34;2.00;99.90
7572;DHT22;3827;49.928;8.548;2022-11-20T02:54:00;1.90;99.90
7572;DHT22;3827;49.928;8.548;2022-11-20T02:56:30;1.80;99.90
7572;DHT22;3827;49.928;8.548;2022-11-20T02:58:57;1.80;99.90
7572;DHT22;3827;49.928;8.548;2022-11-20T03:01:24;1.80;99.90
7572;DHT22;3827;49.928;8.548;2022-11-20T03:03:50;1.80;99.90
7572;DHT22;3827;49.928;8.548;2022-11-20T03:06:19;1.90;99.90
7572;DHT22;3827;49.928;8.548;2022-11-20T03:08:46;1.80;99.90
7572;DHT22;3827;49.928;8.548;2022-11-20T03:11:16;1.80;99.90
7572;DHT22;3827;49.928;8.548;2022-11-20T03:13:44;1.80;99.90
7572;DHT22;3827;49.928;8.548;2022-11-20T03:16:13;1.80;99.90
7572;DHT22;3827;49.928;8.548;2022-11-20T03:18:41;1.70;99.90
7572;DHT22;3827;49.928;8.548;2022-11-20T03:21:09;1.70;99.90
7572;DHT22;3827;49.928;8.548;2022-11-20T03:23:36;1.60;99.90
7572;DHT22;3827;49.928;8.548;2022-11-20T03:26:13;1.60;99.90
7572;DHT22;3827;49.928;8.548;2022-11-20T03:28:40;1.70;99.90
7572;DHT22;3827;49.928;8.548;2022-11-20T03:31:10;1.70;99.90
7572;DHT22;3827;49.928;8.548;2022-11-20T03:33:37;1.60;99.90
7572;DHT22;3827;49.928;8.548;2022-11-20T03:36:06;1.70;99.90
7572;DHT22;3827;49.928;8.548;2022-11-20T03:38:33;1.80;99.90
7572;DHT22;3827;49.928;8.548;2022-11-20T03:41:00;1.70;99.90
7572;DHT22;3827;49.928;8.548;2022-11-20T03:43:27;1.60;99.90
7572;DHT22;3827;49.928;8.548;2022-11-20T03:45:54;1.70;99.90
7572;DHT22;3827;49.928;8.548;2022-11-20T03:48:23;1.60;99.90
7572;DHT22;3827;49.928;8.548;2022-11-20T03:50:50;1.60;99.90
7572;DHT22;3827;49.928;8.548;2022-11-20T03:53:17;1.70;99.90
7572;DHT22;3827;49.928;8.548;2022-11-20T03:55:44;1.80;99.90
7572;DHT22;3827;49.928;8.548;2022-11-20T03:58:11;1.80;99.90
7572;DHT22;3827;49.928;8.548;2022-11-20T04:00:39;1.70;99.90
7572;DHT22;3827;49.928;8.548;2022-11-20T04:03:05;1.70;99.90
7572;DHT22;3827;49.928;8.548;2022-11-20T04:05:34;1.70;99.90
7572;DHT22;3827;49.928;8.548;2022-11-20T04:08:01;1.70;99.90
7572;DHT22;3827;49.928;8.548;2022-11-20T04:10:28;1.70;99.90
7572;DHT22;3827;49.928;8.548;2022-11-20T04:12:54;1.70;99.90
7572;DHT22;3827;49.928;8.548;2022-11-20T04:15:21;1.70;99.90
7572;DHT22;3827;49.928;8.548;2022-11-20T04:17:48;1.80;99.90
7572;DHT22;3827;49.928;8.548;2022-11-20T04:20:15;1.90;99.90
7572;DHT22;3827;49.928;8.548;2022-11-20T04:22:43;1.90;99.90
7572;DHT22;3827;49.928;8.548;2022-11-20T04:25:10;1.90;99.90
7572;DHT22;3827;49.928;8.548;2022-11-20T04:27:36;2.00;99.90
7572;DHT22;3827;49.928;8.548;2022-11-20T04:30:04;2.00;99.90
7572;DHT22;3827;49.928;8.548;2022-11-20T04:32:31;2.00;99.90
7572;DHT22;3827;49.928;8.548;2022-11-20T04:34:58;2.10;99.90
7572;DHT22;3827;49.928;8.548;2022-11-20T04:37:24;2.10;99.90
7572;DHT22;3827;49.928;8.548;2022-11-20T04:39:52;2.10;99.90
7572;DHT22;3827;49.928;8.548;2022-11-20T04:42:19;2.20;99.90
7572;DHT22;3827;49.928;8.548;2022-11-20T04:44:55;2.20;99.90
7572;DHT22;3827;49.928;8.548;2022-11-20T04:47:22;2.20;99.90
7572;DHT22;3827;49.928;8.548;2022-11-20T04:49:49;2.70;99.90
7572;DHT22;3827;49.928;8.548;2022-11-20T04:52:16;2.30;99.90
7572;DHT22;3827;49.928;8.548;2022-11-20T04:54:43;2.30;99.90
7572;DHT22;3827;49.928;8.548;2022-11-20T04:57:13;2.30;99.90
7572;DHT22;3827;49.928;8.548;2022-11-20T04:59:40;2.10;99.90
7572;DHT22;3827;49.928;8.548;2022-11-20T05:02:06;2.30;99.90
7572;DHT22;3827;49.928;8.548;2022-11-20T05:04:33;2.00;99.90
7572;DHT22;3827;49.928;8.548;2022-11-20T05:07:00;1.90;99.90
7572;DHT22;3827;49.928;8.548;2022-11-20T05:09:27;1.90;99.90
7572;DHT22;3827;49.928;8.548;2022-11-20T05:11:53;1.90;99.90
7572;DHT22;3827;49.928;8.548;2022-11-20T05:14:22;2.00;99.90
7572;DHT22;3827;49.928;8.548;2022-11-20T05:16:48;2.00;99.90
7572;DHT22;3827;49.928;8.548;2022-11-20T05:19:15;2.00;99.90
7572;DHT22;3827;49.928;8.548;2022-11-20T05:21:42;2.10;99.90
7572;DHT22;3827;49.928;8.548;2022-11-20T05:24:09;2.10;99.90
7572;DHT22;3827;49.928;8.548;2022-11-20T05:26:36;2.00;99.90
7572;DHT22;3827;49.928;8.548;2022-11-20T05:29:03;1.90;99.90
7572;DHT22;3827;49.928;8.548;2022-11-20T05:31:31;1.90;99.90
7572;DHT22;3827;49.928;8.548;2022-11-20T05:33:57;1.90;99.90
7572;DHT22;3827;49.928;8.548;2022-11-20T05:36:24;1.80;99.90
7572;DHT22;3827;49.928;8.548;2022-11-20T05:38:51;1.90;99.90
7572;DHT22;3827;49.928;8.548;2022-11-20T05:41:19;1.80;99.90
7572;DHT22;3827;49.928;8.548;2022-11-20T05:43:47;1.80;99.90
7572;DHT22;3827;49.928;8.548;2022-11-20T05:46:16;1.80;99.90
7572;DHT22;3827;49.928;8.548;2022-11-20T05:48:45;1.80;99.90
7572;DHT22;3827;49.928;8.548;2022-11-20T05:51:14;1.80;99.90
7572;DHT22;3827;49.928;8.548;2022-11-20T05:53:42;1.80;99.90
7572;DHT22;3827;49.928;8.548;2022-11-20T05:56:10;1.80;99.90
7572;DHT22;3827;49.928;8.548;2022-11-20T05:58:38;1.80;99.90
7572;DHT22;3827;49.928;8.548;2022-11-20T06:01:06;1.80;99.90
7572;DHT22;3827;49.928;8.548;2022-11-20T06:03:33;1.80;99.90
7572;DHT22;3827;49.928;8.548;2022-11-20T06:06:02;1.80;99.90
7572;DHT22;3827;49.928;8.548;2022-11-20T06:08:30;1.80;99.90
7572;DHT22;3827;49.928;8.548;2022-11-20T06:10:56;1.90;99.90
7572;DHT22;3827;49.928;8.548;2022-11-20T06:13:24;2.00;99.90
7572;DHT22;3827;49.928;8.548;2022-11-20T06:15:51;2.10;99.90
7572;DHT22;3827;49.928;8.548;2022-11-20T06:18:19;2.00;99.90
7572;DHT22;3827;49.928;8.548;2022-11-20T06:20:46;2.00;99.90
7572;DHT22;3827;49.928;8.548;2022-11-20T06:23:14;2.00;99.90
7572;DHT22;3827;49.928;8.548;2022-11-20T06:25:42;2.00;99.90
7572;DHT22;3827;49.928;8.548;2022-11-20T06:28:09;1.80;99.90
7572;DHT22;3827;49.928;8.548;2022-11-20T06:30:36;1.80;99.90
7572;DHT22;3827;49.928;8.548;2022-11-20T06:33:03;1.80;99.90
7572;DHT22;3827;49.928;8.548;2022-11-20T06:35:29;1.80;99.90
7572;DHT22;3827;49.928;8.548;2022-11-20T06:37:56;1.90;99.90
7572;DHT22;3827;49.928;8.548;2022-11-20T06:40:24;2.00;99.90
7572;DHT22;3827;49.928;8.548;2022-11-20T06:42:53;2.00;99.90
7572;DHT22;3827;49.928;8.548;2022-11-20T06:45:20;2.10;99.90
7572;DHT22;3827;49.928;8.548;2022-11-20T06:47:47;2.10;99.90
7572;DHT22;3827;49.928;8.548;2022-11-20T06:50:14;2.00;99.90
7572;DHT22;3827;49.928;8.548;2022-11-20T06:52:41;2.10;99.90
7572;DHT22;3827;49.928;8.548;2022-11-20T06:55:08;2.10;99.90
7572;DHT22;3827;49.928;8.548;2022-11-20T06:57:36;2.10;99.90
7572;DHT22;3827;49.928;8.548;2022-11-20T07:00:03;2.10;99.90
7572;DHT22;3827;49.928;8.548;2022-11-20T07:02:30;2.10;99.90
7572;DHT22;3827;49.928;8.548;2022-11-20T07:04:57;2.10;99.90
7572;DHT22;3827;49.928;8.548;2022-11-20T07:07:24;2.10;99.90
7572;DHT22;3827;49.928;8.548;2022-11-20T07:09:50;2.10;99.90
7572;DHT22;3827;49.928;8.548;2022-11-20T07:12:17;2.10;99.90
7572;DHT22;3827;49.928;8.548;2022-11-20T07:14:45;2.10;99.90
7572;DHT22;3827;49.928;8.548;2022-11-20T07:17:12;2.20;99.90
7572;DHT22;3827;49.928;8.548;2022-11-20T07:19:39;2.10;99.90
7572;DHT22;3827;49.928;8.548;2022-11-20T07:22:06;2.20;99.90
7572;DHT22;3827;49.928;8.548;2022-11-20T07:24:32;2.20;99.90
7572;DHT22;3827;49.928;8.548;2022-11-20T07:27:00;2.10;99.90
7572;DHT22;3827;49.928;8.548;2022-11-20T07:29:27;2.10;99.90
7572;DHT22;3827;49.928;8.548;2022-11-20T07:31:55;2.10;99.90
7572;DHT22;3827;49.928;8.548;2022-11-20T07:34:22;2.20;99.90
7572;DHT22;3827;49.928;8.548;2022-11-20T07:36:48;2.20;99.90
7572;DHT22;3827;49.928;8.548;2022-11-20T07:39:15;2.20;99.90
7572;DHT22;3827;49.928;8.548;2022-11-20T07:41:42;2.20;99.90
7572;DHT22;3827;49.928;8.548;2022-11-20T07:44:09;2.20;99.90
7572;DHT22;3827;49.928;8.548;2022-11-20T07:46:36;2.20;99.90
7572;DHT22;3827;49.928;8.548;2022-11-20T07:49:04;2.10;99.90
7572;DHT22;3827;49.928;8.548;2022-11-20T07:51:31;2.20;99.90
7572;DHT22;3827;49.928;8.548;2022-11-20T07:53:57;2.30;99.90
7572;DHT22;3827;49.928;8.548;2022-11-20T07:56:24;2.30;99.90
7572;DHT22;3827;49.928;8.548;2022-11-20T07:58:51;2.20;99.90
7572;DHT22;3827;49.928;8.548;2022-11-20T08:01:18;2.20;99.90
7572;DHT22;3827;49.928;8.548;2022-11-20T08:03:44;2.20;99.90
7572;DHT22;3827;49.928;8.548;2022-11-20T08:06:12;2.50;99.90
7572;DHT22;3827;49.928;8.548;2022-11-20T08:08:40;2.50;99.90
7572;DHT22;3827;49.928;8.548;2022-11-20T08:11:07;2.60;99.90
7572;DHT22;3827;49.928;8.548;2022-11-20T08:13:51;2.60;99.90
7572;DHT22;3827;49.928;8.548;2022-11-20T08:16:35;2.60;99.90
7572;DHT22;3827;49.928;8.548;2022-11-20T08:19:02;2.60;99.90
7572;DHT22;3827;49.928;8.548;2022-11-20T08:21:31;2.90;99.90
7572;DHT22;3827;49.928;8.548;2022-11-20T08:23:58;2.80;99.90
7572;DHT22;3827;49.928;8.548;2022-11-20T08:26:25;2.80;99.90
7572;DHT22;3827;49.928;8.548;2022-11-20T08:28:54;2.90;99.90
7572;DHT22;3827;49.928;8.548;2022-11-20T08:31:21;3.00;99.90
7572;DHT22;3827;49.928;8.548;2022-11-20T08:33:48;3.10;99.90
7572;DHT22;3827;49.928;8.548;2022-11-20T08:36:15;3.10;99.90
7572;DHT22;3827;49.928;8.548;2022-11-20T08:38:46;3.20;99.90
7572;DHT22;3827;49.928;8.548;2022-11-20T08:41:13;3.40;99.90
7572;DHT22;3827;49.928;8.548;2022-11-20T08:43:55;3.60;99.90
7572;DHT22;3827;49.928;8.548;2022-11-20T08:46:23;3.60;99.90
7572;DHT22;3827;49.928;8.548;2022-11-20T08:48:50;3.60;99.90
7572;DHT22;3827;49.928;8.548;2022-11-20T08:51:18;3.50;99.90
7572;DHT22;3827;49.928;8.548;2022-11-20T08:53:47;3.50;99.90
7572;DHT22;3827;49.928;8.548;2022-11-20T08:56:15;3.50;99.90
7572;DHT22;3827;49.928;8.548;2022-11-20T08:58:42;3.60;99.90
7572;DHT22;3827;49.928;8.548;2022-11-20T09:01:09;3.80;99.90
7572;DHT22;3827;49.928;8.548;2022-11-20T09:03:36;3.60;99.90
7572;DHT22;3827;49.928;8.548;2022-11-20T09:06:05;3.70;99.90
7572;DHT22;3827;49.928;8.548;2022-11-20T09:08:33;3.80;99.90
7572;DHT22;3827;49.928;8.548;2022-11-20T09:11:02;3.90;99.90
7572;DHT22;3827;49.928;8.548;2022-11-20T09:13:30;3.90;99.90
7572;DHT22;3827;49.928;8.548;2022-11-20T09:15:58;3.70;99.90
7572;DHT22;3827;49.928;8.548;2022-11-20T09:18:26;3.70;99.90
7572;DHT22;3827;49.928;8.548;2022-11-20T09:20:56;3.60;99.90
7572;DHT22;3827;49.928;8.548;2022-11-20T09:23:24;3.70;99.90
7572;DHT22;3827;49.928;8.548;2022-11-20T09:25:50;3.80;99.90
7572;DHT22;3827;49.928;8.548;2022-11-20T09:28:19;3.80;99.90
7572;DHT22;3827;49.928;8.548;2022-11-20T09:30:46;3.80;99.90
7572;DHT22;3827;49.928;8.548;2022-11-20T09:33:13;3.80;99.90
7572;DHT22;3827;49.928;8.548;2022-11-20T09:35:39;3.70;99.90
7572;DHT22;3827;49.928;8.548;2022-11-20T09:38:06;3.50;99.90
7572;DHT22;3827;49.928;8.548;2022-11-20T09:40:35;3.40;99.90
7572;DHT22;3827;49.928;8.548;2022-11-20T09:43:10;3.40;99.90
7572;DHT22;3827;49.928;8.548;2022-11-20T09:45:50;3.40;99.90
7572;DHT22;3827;49.928;8.548;2022-11-20T09:48:32;3.40;99.90
7572;DHT22;3827;49.928;8.548;2022-11-20T09:51:05;3.50;99.90
7572;DHT22;3827;49.928;8.548;2022-11-20T09:53:46;3.70;99.90
7572;DHT22;3827;49.928;8.548;2022-11-20T09:56:17;3.80;99.90
7572;DHT22;3827;49.928;8.548;2022-11-20T09:58:47;3.90;99.90
7572;DHT22;3827;49.928;8.548;2022-11-20T10:01:17;4.00;99.90
7572;DHT22;3827;49.928;8.548;2022-11-20T10:03:52;4.10;99.90
7572;DHT22;3827;49.928;8.548;2022-11-20T10:06:25;4.00;99.90
7572;DHT22;3827;49.928;8.548;2022-11-20T10:09:01;4.10;99.90
7572;DHT22;3827;49.928;8.548;2022-11-20T10:11:36;3.90;99.90
7572;DHT22;3827;49.928;8.548;2022-11-20T10:14:16;3.80;99.90
7572;DHT22;3827;49.928;8.548;2022-11-20T10:16:52;4.00;99.90
7572;DHT22;3827;49.928;8.548;2022-11-20T10:19:37;4.10;99.90
7572;DHT22;3827;49.928;8.548;2022-11-20T10:22:18;4.20;99.90
7572;DHT22;3827;49.928;8.548;2022-11-20T10:24:53;4.30;99.90
7572;DHT22;3827;49.928;8.548;2022-11-20T10:27:36;4.20;99.90
7572;DHT22;3827;49.928;8.548;2022-11-20T10:30:09;4.20;99.90
7572;DHT22;3827;49.928;8.548;2022-11-20T10:32:41;4.30;99.90
7572;DHT22;3827;49.928;8.548;2022-11-20T10:35:18;4.30;99.90
7572;DHT22;3827;49.928;8.548;2022-11-20T10:37:49;4.40;99.90
7572;DHT22;3827;49.928;8.548;2022-11-20T10:40:25;4.50;99.90
7572;DHT22;3827;49.928;8.548;2022-11-20T10:42:56;4.50;99.90
7572;DHT22;3827;49.928;8.548;2022-11-20T10:45:36;4.50;99.90
7572;DHT22;3827;49.928;8.548;2022-11-20T10:48:15;4.50;99.90
7572;DHT22;3827;49.928;8.548;2022-11-20T10:50:56;4.50;99.90
7572;DHT22;3827;49.928;8.548;2022-11-20T10:53:37;4.50;99.90
7572;DHT22;3827;49.928;8.548;2022-11-20T10:56:13;4.30;99.90
7572;DHT22;3827;49.928;8.548;2022-11-20T10:58:50;4.20;99.90
7572;DHT22;3827;49.928;8.548;2022-11-20T11:01:20;4.20;99.90
7572;DHT22;3827;49.928;8.548;2022-11-20T11:03:50;4.00;99.90
7572;DHT22;3827;49.928;8.548;2022-11-20T11:06:24;3.90;99.90
7572;DHT22;3827;49.928;8.548;2022-11-20T11:08:58;4.10;99.90
7572;DHT22;3827;49.928;8.548;2022-11-20T11:11:31;4.20;99.90
7572;DHT22;3827;49.928;8.548;2022-11-20T11:14:05;4.30;99.90
7572;DHT22;3827;49.928;8.548;2022-11-20T11:16:32;4.30;99.90
7572;DHT22;3827;49.928;8.548;2022-11-20T11:19:12;4.30;99.90
7572;DHT22;3827;49.928;8.548;2022-11-20T11:21:45;4.20;99.90
7572;DHT22;3827;49.928;8.548;2022-11-20T11:24:20;4.40;99.90
7572;DHT22;3827;49.928;8.548;2022-11-20T11:26:57;4.40;99.90
7572;DHT22;3827;49.928;8.548;2022-11-20T11:29:24;4.50;99.90
7572;DHT22;3827;49.928;8.548;2022-11-20T11:32:04;4.60;99.90
7572;DHT22;3827;49.928;8.548;2022-11-20T11:34:33;4.60;99.90
7572;DHT22;3827;49.928;8.548;2022-11-20T11:37:01;4.60;99.90
7572;DHT22;3827;49.928;8.548;2022-11-20T11:39:30;4.60;99.90
7572;DHT22;3827;49.928;8.548;2022-11-20T11:42:00;4.60;99.90
7572;DHT22;3827;49.928;8.548;2022-11-20T11:44:29;4.60;99.90
7572;DHT22;3827;49.928;8.548;2022-11-20T11:47:22;4.70;99.90
7572;DHT22;3827;49.928;8.548;2022-11-20T11:50:02;4.70;99.90
7572;DHT22;3827;49.928;8.548;2022-11-20T11:52:44;4.80;99.90
7572;DHT22;3827;49.928;8.548;2022-11-20T11:55:17;4.90;99.90
7572;DHT22;3827;49.928;8.548;2022-11-20T11:57:54;5.00;99.90
7572;DHT22;3827;49.928;8.548;2022-11-20T12:00:22;5.20;99.90
7572;DHT22;3827;49.928;8.548;2022-11-20T12:02:56;5.20;99.90
7572;DHT22;3827;49.928;8.548;2022-11-20T12:05:30;5.30;99.90
7572;DHT22;3827;49.928;8.548;2022-11-20T12:08:04;5.40;99.90
7572;DHT22;3827;49.928;8.548;2022-11-20T12:10:40;5.20;99.90
7572;DHT22;3827;49.928;8.548;2022-11-20T12:13:25;5.40;99.90
7572;DHT22;3827;49.928;8.548;2022-11-20T12:15:53;5.50;99.90
7572;DHT22;3827;49.928;8.548;2022-11-20T12:18:21;5.60;99.90
7572;DHT22;3827;49.928;8.548;2022-11-20T12:20:59;5.60;99.90
7572;DHT22;3827;49.928;8.548;2022-11-20T12:23:32;5.70;99.90
7572;DHT22;3827;49.928;8.548;2022-11-20T12:26:07;5.80;99.90
7572;DHT22;3827;49.928;8.548;2022-11-20T12:28:48;5.90;99.90
7572;DHT22;3827;49.928;8.548;2022-11-20T12:31:44;5.90;99.90
7572;DHT22;3827;49.928;8.548;2022-11-20T12:37:28;6.10;99.90
7572;DHT22;3827;49.928;8.548;2022-11-20T12:40:00;6.00;99.90
7572;DHT22;3827;49.928;8.548;2022-11-20T12:42:46;5.90;99.90
7572;DHT22;3827;49.928;8.548;2022-11-20T12:45:51;5.80;99.90
7572;DHT22;3827;49.928;8.548;2022-11-20T12:48:34;5.70;99.90
7572;DHT22;3827;49.928;8.548;2022-11-20T12:51:20;5.60;99.90
7572;DHT22;3827;49.928;8.548;2022-11-20T12:54:00;5.50;99.90
7572;DHT22;3827;49.928;8.548;2022-11-20T12:56:37;5.50;99.90
7572;DHT22;3827;49.928;8.548;2022-11-20T12:59:21;5.50;99.90
7572;DHT22;3827;49.928;8.548;2022-11-20T13:01:53;5.60;99.90
7572;DHT22;3827;49.928;8.548;2022-11-20T13:04:50;5.60;99.90
7572;DHT22;3827;49.928;8.548;2022-11-20T13:07:24;5.60;99.90
7572;DHT22;3827;49.928;8.548;2022-11-20T13:09:55;5.60;99.90
7572;DHT22;3827;49.928;8.548;2022-11-20T13:12:24;5.50;99.90
7572;DHT22;3827;49.928;8.548;2022-11-20T13:15:00;5.40;99.90
7572;DHT22;3827;49.928;8.548;2022-11-20T13:17:34;5.40;99.90
7572;DHT22;3827;49.928;8.548;2022-11-20T13:20:06;5.30;99.90
7572;DHT22;3827;49.928;8.548;2022-11-20T13:22:43;5.30;99.90
7572;DHT22;3827;49.928;8.548;2022-11-20T13:25:22;5.30;99.90
7572;DHT22;3827;49.928;8.548;2022-11-20T13:27:50;5.30;99.90
7572;DHT22;3827;49.928;8.548;2022-11-20T13:30:18;5.30;99.90
7572;DHT22;3827;49.928;8.548;2022-11-20T13:32:51;5.40;99.90
7572;DHT22;3827;49.928;8.548;2022-11-20T13:35:26;5.50;99.90
7572;DHT22;3827;49.928;8.548;2022-11-20T13:38:08;5.60;99.90
7572;DHT22;3827;49.928;8.548;2022-11-20T13:40:38;5.60;99.90
7572;DHT22;3827;49.928;8.548;2022-11-20T13:43:18;5.70;99.90
7572;DHT22;3827;49.928;8.548;2022-11-20T13:45:55;5.80;99.90
7572;DHT22;3827;49.928;8.548;2022-11-20T13:48:24;5.80;99.90
7572;DHT22;3827;49.928;8.548;2022-11-20T13:50:59;5.90;99.90
7572;DHT22;3827;49.928;8.548;2022-11-20T13:56:34;6.00;99.90
7572;DHT22;3827;49.928;8.548;2022-11-20T13:59:12;5.90;99.90
7572;DHT22;3827;49.928;8.548;2022-11-20T14:01:42;5.70;99.90
7572;DHT22;3827;49.928;8.548;2022-11-20T14:04:15;5.80;99.90
7572;DHT22;3827;49.928;8.548;2022-11-20T14:06:45;5.80;99.90
7572;DHT22;3827;49.928;8.548;2022-11-20T14:09:25;5.90;99.90
7572;DHT22;3827;49.928;8.548;2022-11-20T14:11:53;5.90;99.90
7572;DHT22;3827;49.928;8.548;2022-11-20T14:14:22;5.90;99.90
7572;DHT22;3827;49.928;8.548;2022-11-20T14:16:50;5.80;99.90
7572;DHT22;3827;49.928;8.548;2022-11-20T14:19:28;5.80;99.90
7572;DHT22;3827;49.928;8.548;2022-11-20T14:22:09;5.90;99.90
7572;DHT22;3827;49.928;8.548;2022-11-20T14:24:36;5.90;99.90
7572;DHT22;3827;49.928;8.548;2022-11-20T14:27:09;5.90;99.90
7572;DHT22;3827;49.928;8.548;2022-11-20T14:29:38;5.90;99.90
7572;DHT22;3827;49.928;8.548;2022-11-20T14:32:06;5.80;99.90
7572;DHT22;3827;49.928;8.548;2022-11-20T14:34:38;5.80;99.90
7572;DHT22;3827;49.928;8.548;2022-11-20T14:37:10;5.80;99.90
7572;DHT22;3827;49.928;8.548;2022-11-20T14:39:41;5.80;99.90
7572;DHT22;3827;49.928;8.548;2022-11-20T14:42:16;5.70;99.90
7572;DHT22;3827;49.928;8.548;2022-11-20T14:44:44;5.80;99.90
7572;DHT22;3827;49.928;8.548;2022-11-20T14:47:12;5.70;99.90
7572;DHT22;3827;49.928;8.548;2022-11-20T14:49:40;5.70;99.90
7572;DHT22;3827;49.928;8.548;2022-11-20T14:52:13;5.60;99.90
7572;DHT22;3827;49.928;8.548;2022-11-20T14:54:45;5.60;99.90
7572;DHT22;3827;49.928;8.548;2022-11-20T14:57:35;5.60;99.90
7572;DHT22;3827;49.928;8.548;2022-11-20T15:00:19;5.50;99.90
7572;DHT22;3827;49.928;8.548;2022-11-20T15:02:47;5.50;99.90
7572;DHT22;3827;49.928;8.548;2022-11-20T15:05:16;5.50;99.90
7572;DHT22;3827;49.928;8.548;2022-11-20T15:07:45;5.50;99.90
7572;DHT22;3827;49.928;8.548;2022-11-20T15:10:19;5.40;99.90
7572;DHT22;3827;49.928;8.548;2022-11-20T15:12:49;5.40;99.90
7572;DHT22;3827;49.928;8.548;2022-11-20T15:15:20;5.40;99.90
7572;DHT22;3827;49.928;8.548;2022-11-20T15:17:47;5.40;99.90
7572;DHT22;3827;49.928;8.548;2022-11-20T15:20:16;5.30;99.90
7572;DHT22;3827;49.928;8.548;2022-11-20T15:22:42;5.30;99.90
7572;DHT22;3827;49.928;8.548;2022-11-20T15:25:14;5.30;99.90
7572;DHT22;3827;49.928;8.548;2022-11-20T15:27:41;5.30;99.90
7572;DHT22;3827;49.928;8.548;2022-11-20T15:30:18;5.50;99.90
7572;DHT22;3827;49.928;8.548;2022-11-20T15:32:46;5.20;99.90
7572;DHT22;3827;49.928;8.548;2022-11-20T15:35:13;5.10;99.90
7572;DHT22;3827;49.928;8.548;2022-11-20T15:37:40;5.10;99.90
7572;DHT22;3827;49.928;8.548;2022-11-20T15:40:08;5.10;99.90
7572;DHT22;3827;49.928;8.548;2022-11-20T15:42:35;5.10;99.90
7572;DHT22;3827;49.928;8.548;2022-11-20T15:45:04;5.20;99.90
7572;DHT22;3827;49.928;8.548;2022-11-20T15:47:34;5.00;99.90
7572;DHT22;3827;49.928;8.548;2022-11-20T15:50:01;5.10;99.90
7572;DHT22;3827;49.928;8.548;2022-11-20T15:52:28;5.00;99.90
7572;DHT22;3827;49.928;8.548;2022-11-20T15:54:55;5.00;99.90
7572;DHT22;3827;49.928;8.548;2022-11-20T15:57:22;4.90;99.90
7572;DHT22;3827;49.928;8.548;2022-11-20T15:59:49;5.00;99.90
7572;DHT22;3827;49.928;8.548;2022-11-20T16:02:16;5.00;99.90
7572;DHT22;3827;49.928;8.548;2022-11-20T16:04:44;5.00;99.90
7572;DHT22;3827;49.928;8.548;2022-11-20T16:07:11;4.90;99.90
7572;DHT22;3827;49.928;8.548;2022-11-20T16:09:38;4.90;99.90
7572;DHT22;3827;49.928;8.548;2022-11-20T16:12:07;4.80;99.90
7572;DHT22;3827;49.928;8.548;2022-11-20T16:14:54;4.90;99.90
7572;DHT22;3827;49.928;8.548;2022-11-20T16:17:38;4.80;99.90
7572;DHT22;3827;49.928;8.548;2022-11-20T16:20:11;4.90;99.90
7572;DHT22;3827;49.928;8.548;2022-11-20T16:22:38;4.90;99.90
7572;DHT22;3827;49.928;8.548;2022-11-20T16:25:06;4.90;99.90
7572;DHT22;3827;49.928;8.548;2022-11-20T16:27:32;4.90;99.90
7572;DHT22;3827;49.928;8.548;2022-11-20T16:29:59;4.90;99.90
7572;DHT22;3827;49.928;8.548;2022-11-20T16:32:26;4.90;99.90
7572;DHT22;3827;49.928;8.548;2022-11-20T16:34:53;4.90;99.90
7572;DHT22;3827;49.928;8.548;2022-11-20T16:37:21;5.30;99.90
7572;DHT22;3827;49.928;8.548;2022-11-20T16:39:48;5.00;99.90
7572;DHT22;3827;49.928;8.548;2022-11-20T16:42:15;5.00;99.90